<?xml version="1.0" encoding="UTF-8" standalone="no" ?>
<gpx xmlns="http://www.topografix.com/GPX/1/1" xmlns:xsi="http://www.w3.org/2001/XMLSchema-instance" xsi:schemaLocation="http://www.topografix.com/GPX/1/1 http://www.topografix.com/GPX/1/1/gpx.xsd" version="1.1" creator="VisuGPX - https://www.visugpx.com">
  <metadata>
    <name>FoussayPaire_Autour_19-22km</name>
    <desc><![CDATA[gnerando idor;8986892_8986940_8986962_9129062_9131846]]></desc>
  </metadata>
  <trk>
    <name><![CDATA[FoussaisP_SudEst_20.5km-8986940]]></name>
    <extensions>
      <line xmlns="http://www.topografix.com/GPX/gpx_style/0/2">
        <color>00FF00</color>
        <width>4</width>
      </line>
    </extensions>
    <trkseg>
      <trkpt lat="46.52973" lon="-0.68236">
        <ele>84</ele>
        <time>2023-11-01T17:32:37Z</time>
      </trkpt>
      <trkpt lat="46.53066" lon="-0.68197">
        <ele>82</ele>
        <time>2023-11-01T17:34:46Z</time>
      </trkpt>
      <trkpt lat="46.53098" lon="-0.6831">
        <ele>85</ele>
        <time>2023-11-01T17:36:38Z</time>
      </trkpt>
      <trkpt lat="46.53129" lon="-0.68294">
        <ele>85</ele>
        <time>2023-11-01T17:37:22Z</time>
      </trkpt>
      <trkpt lat="46.53157" lon="-0.68414">
        <ele>85</ele>
        <time>2023-11-01T17:39:19Z</time>
      </trkpt>
      <trkpt lat="46.53287" lon="-0.68775">
        <ele>96</ele>
        <time>2023-11-01T17:45:33Z</time>
      </trkpt>
      <trkpt lat="46.53063" lon="-0.68916">
        <ele>94</ele>
        <time>2023-11-01T17:50:58Z</time>
      </trkpt>
      <trkpt lat="46.5308" lon="-0.69089">
        <ele>96</ele>
        <time>2023-11-01T17:53:39Z</time>
      </trkpt>
      <trkpt lat="46.52929" lon="-0.69104">
        <ele>92</ele>
        <time>2023-11-01T17:57:01Z</time>
      </trkpt>
      <trkpt lat="46.52971" lon="-0.69293">
        <ele>91</ele>
        <time>2023-11-01T18:00:03Z</time>
      </trkpt>
      <trkpt lat="46.52947" lon="-0.69513">
        <ele>91</ele>
        <time>2023-11-01T18:03:28Z</time>
      </trkpt>
      <trkpt lat="46.52877" lon="-0.69681">
        <ele>90</ele>
        <time>2023-11-01T18:06:28Z</time>
      </trkpt>
      <trkpt lat="46.52968" lon="-0.69707">
        <ele>91</ele>
        <time>2023-11-01T18:08:32Z</time>
      </trkpt>
      <trkpt lat="46.52993" lon="-0.69901">
        <ele>87</ele>
        <time>2023-11-01T18:11:33Z</time>
      </trkpt>
      <trkpt lat="46.53084" lon="-0.69941">
        <ele>82</ele>
        <time>2023-11-01T18:13:40Z</time>
      </trkpt>
      <trkpt lat="46.53119" lon="-0.70171">
        <ele>79</ele>
        <time>2023-11-01T18:17:16Z</time>
      </trkpt>
      <trkpt lat="46.52891" lon="-0.70268">
        <ele>87</ele>
        <time>2023-11-01T18:22:33Z</time>
      </trkpt>
      <trkpt lat="46.52929" lon="-0.70416">
        <ele>87</ele>
        <time>2023-11-01T18:24:58Z</time>
      </trkpt>
      <trkpt lat="46.5274" lon="-0.70554">
        <ele>85</ele>
        <time>2023-11-01T18:29:40Z</time>
      </trkpt>
      <trkpt lat="46.5267" lon="-0.70457">
        <ele>88</ele>
        <time>2023-11-01T18:31:49Z</time>
      </trkpt>
      <trkpt lat="46.52568" lon="-0.70702">
        <ele>85</ele>
        <time>2023-11-01T18:36:12Z</time>
      </trkpt>
      <trkpt lat="46.52438" lon="-0.70595">
        <ele>88</ele>
        <time>2023-11-01T18:39:32Z</time>
      </trkpt>
      <trkpt lat="46.52241" lon="-0.706">
        <ele>91</ele>
        <time>2023-11-01T18:43:55Z</time>
      </trkpt>
      <trkpt lat="46.52009" lon="-0.70962">
        <ele>93</ele>
        <time>2023-11-01T18:51:29Z</time>
      </trkpt>
      <trkpt lat="46.51781" lon="-0.71723">
        <ele>93</ele>
        <time>2023-11-01T19:04:11Z</time>
      </trkpt>
      <trkpt lat="46.51314" lon="-0.71717">
        <ele>79</ele>
        <time>2023-11-01T19:14:34Z</time>
      </trkpt>
      <trkpt lat="46.51093" lon="-0.71549">
        <ele>91</ele>
        <time>2023-11-01T19:20:07Z</time>
      </trkpt>
      <trkpt lat="46.50935" lon="-0.71661">
        <ele>98</ele>
        <time>2023-11-01T19:24:02Z</time>
      </trkpt>
      <trkpt lat="46.50752" lon="-0.71478">
        <ele>100</ele>
        <time>2023-11-01T19:28:58Z</time>
      </trkpt>
      <trkpt lat="46.50573" lon="-0.71462">
        <ele>104</ele>
        <time>2023-11-01T19:32:57Z</time>
      </trkpt>
      <trkpt lat="46.50316" lon="-0.71049">
        <ele>104</ele>
        <time>2023-11-01T19:41:29Z</time>
      </trkpt>
      <trkpt lat="46.5013" lon="-0.70161">
        <ele>94</ele>
        <time>2023-11-01T19:55:41Z</time>
      </trkpt>
      <trkpt lat="46.50021" lon="-0.69492">
        <ele>79</ele>
        <time>2023-11-01T20:06:13Z</time>
      </trkpt>
      <trkpt lat="46.50113" lon="-0.69293">
        <ele>71</ele>
        <time>2023-11-01T20:09:53Z</time>
      </trkpt>
      <trkpt lat="46.50229" lon="-0.69191">
        <ele>71</ele>
        <time>2023-11-01T20:12:54Z</time>
      </trkpt>
      <trkpt lat="46.50074" lon="-0.68814">
        <ele>62</ele>
        <time>2023-11-01T20:19:37Z</time>
      </trkpt>
      <trkpt lat="46.50021" lon="-0.68717">
        <ele>56</ele>
        <time>2023-11-01T20:21:31Z</time>
      </trkpt>
      <trkpt lat="46.50067" lon="-0.68635">
        <ele>55</ele>
        <time>2023-11-01T20:23:08Z</time>
      </trkpt>
      <trkpt lat="46.50137" lon="-0.6864">
        <ele>60</ele>
        <time>2023-11-01T20:24:42Z</time>
      </trkpt>
      <trkpt lat="46.50201" lon="-0.68426">
        <ele>62</ele>
        <time>2023-11-01T20:28:16Z</time>
      </trkpt>
      <trkpt lat="46.5019" lon="-0.68334">
        <ele>61</ele>
        <time>2023-11-01T20:29:42Z</time>
      </trkpt>
      <trkpt lat="46.50236" lon="-0.68247">
        <ele>61</ele>
        <time>2023-11-01T20:31:23Z</time>
      </trkpt>
      <trkpt lat="46.50253" lon="-0.68033">
        <ele>61</ele>
        <time>2023-11-01T20:34:41Z</time>
      </trkpt>
      <trkpt lat="46.50165" lon="-0.67813">
        <ele>58</ele>
        <time>2023-11-01T20:38:34Z</time>
      </trkpt>
      <trkpt lat="46.50292" lon="-0.67624">
        <ele>59</ele>
        <time>2023-11-01T20:42:37Z</time>
      </trkpt>
      <trkpt lat="46.50559" lon="-0.67589">
        <ele>64</ele>
        <time>2023-11-01T20:48:35Z</time>
      </trkpt>
      <trkpt lat="46.50562" lon="-0.67425">
        <ele>60</ele>
        <time>2023-11-01T20:51:05Z</time>
      </trkpt>
      <trkpt lat="46.50517" lon="-0.6739">
        <ele>59</ele>
        <time>2023-11-01T20:52:14Z</time>
      </trkpt>
      <trkpt lat="46.50524" lon="-0.67298">
        <ele>63</ele>
        <time>2023-11-01T20:53:39Z</time>
      </trkpt>
      <trkpt lat="46.50569" lon="-0.67221">
        <ele>68</ele>
        <time>2023-11-01T20:55:11Z</time>
      </trkpt>
      <trkpt lat="46.50538" lon="-0.67002">
        <ele>65</ele>
        <time>2023-11-01T20:58:37Z</time>
      </trkpt>
      <trkpt lat="46.50654" lon="-0.66619">
        <ele>58</ele>
        <time>2023-11-01T21:05:01Z</time>
      </trkpt>
      <trkpt lat="46.51065" lon="-0.66435">
        <ele>60</ele>
        <time>2023-11-01T21:14:35Z</time>
      </trkpt>
      <trkpt lat="46.5097" lon="-0.66252">
        <ele>54</ele>
        <time>2023-11-01T21:18:05Z</time>
      </trkpt>
      <trkpt lat="46.50966" lon="-0.66114">
        <ele>53</ele>
        <time>2023-11-01T21:20:12Z</time>
      </trkpt>
      <trkpt lat="46.50885" lon="-0.65966">
        <ele>53</ele>
        <time>2023-11-01T21:23:06Z</time>
      </trkpt>
      <trkpt lat="46.50882" lon="-0.65828">
        <ele>55</ele>
        <time>2023-11-01T21:25:13Z</time>
      </trkpt>
      <trkpt lat="46.51022" lon="-0.6566">
        <ele>53</ele>
        <time>2023-11-01T21:29:15Z</time>
      </trkpt>
      <trkpt lat="46.51156" lon="-0.65593">
        <ele>55</ele>
        <time>2023-11-01T21:32:24Z</time>
      </trkpt>
      <trkpt lat="46.51686" lon="-0.65578">
        <ele>67</ele>
        <time>2023-11-01T21:44:12Z</time>
      </trkpt>
      <trkpt lat="46.51971" lon="-0.65675">
        <ele>70</ele>
        <time>2023-11-01T21:50:42Z</time>
      </trkpt>
      <trkpt lat="46.52044" lon="-0.66068">
        <ele>71</ele>
        <time>2023-11-01T21:56:56Z</time>
      </trkpt>
      <trkpt lat="46.52238" lon="-0.66374">
        <ele>70</ele>
        <time>2023-11-01T22:03:18Z</time>
      </trkpt>
      <trkpt lat="46.52448" lon="-0.66859">
        <ele>71</ele>
        <time>2023-11-01T22:12:04Z</time>
      </trkpt>
      <trkpt lat="46.52459" lon="-0.66992">
        <ele>70</ele>
        <time>2023-11-01T22:14:07Z</time>
      </trkpt>
      <trkpt lat="46.5255" lon="-0.67026">
        <ele>72</ele>
        <time>2023-11-01T22:16:13Z</time>
      </trkpt>
      <trkpt lat="46.52754" lon="-0.66801">
        <ele>79</ele>
        <time>2023-11-01T22:21:54Z</time>
      </trkpt>
      <trkpt lat="46.52828" lon="-0.67066">
        <ele>80</ele>
        <time>2023-11-01T22:26:17Z</time>
      </trkpt>
      <trkpt lat="46.53287" lon="-0.67158">
        <ele>90</ele>
        <time>2023-11-01T22:36:35Z</time>
      </trkpt>
      <trkpt lat="46.53298" lon="-0.6676">
        <ele>84</ele>
        <time>2023-11-01T22:42:41Z</time>
      </trkpt>
      <trkpt lat="46.53596" lon="-0.66759">
        <ele>87</ele>
        <time>2023-11-01T22:49:19Z</time>
      </trkpt>
      <trkpt lat="46.53684" lon="-0.66781">
        <ele>89</ele>
        <time>2023-11-01T22:51:18Z</time>
      </trkpt>
      <trkpt lat="46.53767" lon="-0.66695">
        <ele>87</ele>
        <time>2023-11-01T22:53:34Z</time>
      </trkpt>
      <trkpt lat="46.53855" lon="-0.66772">
        <ele>90</ele>
        <time>2023-11-01T22:55:51Z</time>
      </trkpt>
      <trkpt lat="46.54006" lon="-0.66708">
        <ele>88</ele>
        <time>2023-11-01T22:59:21Z</time>
      </trkpt>
      <trkpt lat="46.54319" lon="-0.66785">
        <ele>87</ele>
        <time>2023-11-01T23:06:24Z</time>
      </trkpt>
      <trkpt lat="46.54517" lon="-0.66673">
        <ele>99</ele>
        <time>2023-11-01T23:11:08Z</time>
      </trkpt>
      <trkpt lat="46.54859" lon="-0.67373">
        <ele>107</ele>
        <time>2023-11-01T23:24:16Z</time>
      </trkpt>
      <trkpt lat="46.54747" lon="-0.67502">
        <ele>105</ele>
        <time>2023-11-01T23:27:27Z</time>
      </trkpt>
      <trkpt lat="46.54514" lon="-0.67536">
        <ele>103</ele>
        <time>2023-11-01T23:32:39Z</time>
      </trkpt>
      <trkpt lat="46.53909" lon="-0.67583">
        <ele>100</ele>
        <time>2023-11-01T23:46:08Z</time>
      </trkpt>
      <trkpt lat="46.53717" lon="-0.67231">
        <ele>92</ele>
        <time>2023-11-01T23:53:00Z</time>
      </trkpt>
      <trkpt lat="46.53531" lon="-0.6739">
        <ele>88</ele>
        <time>2023-11-01T23:57:48Z</time>
      </trkpt>
      <trkpt lat="46.53339" lon="-0.67446">
        <ele>87</ele>
        <time>2023-11-02T00:02:09Z</time>
      </trkpt>
      <trkpt lat="46.5338" lon="-0.67708">
        <ele>92</ele>
        <time>2023-11-02T00:06:16Z</time>
      </trkpt>
      <trkpt lat="46.532" lon="-0.67829">
        <ele>83</ele>
        <time>2023-11-02T00:10:41Z</time>
      </trkpt>
      <trkpt lat="46.5314" lon="-0.68155">
        <ele>83</ele>
        <time>2023-11-02T00:15:50Z</time>
      </trkpt>
      <trkpt lat="46.53144" lon="-0.68293">
        <ele>85</ele>
        <time>2023-11-02T00:17:57Z</time>
      </trkpt>
      <trkpt lat="46.53094" lon="-0.68311">
        <ele>85</ele>
        <time>2023-11-02T00:19:06Z</time>
      </trkpt>
      <trkpt lat="46.5308" lon="-0.68203">
        <ele>82</ele>
        <time>2023-11-02T00:20:47Z</time>
      </trkpt>
      <trkpt lat="46.52977" lon="-0.68208">
        <ele>83</ele>
        <time>2023-11-02T00:23:04Z</time>
      </trkpt>
    </trkseg>
  </trk>
</gpx>